sensor_id;sensor_type;location;lat;lon;timestamp;temperature;humidity
11965;DHT22;6042;41.326;19.826;2023-05-16T00:01:46;21.70;99.90
11965;DHT22;6042;41.326;19.826;2023-05-16T00:04:15;21.70;99.90
11965;DHT22;6042;41.326;19.826;2023-05-16T00:06:43;21.70;99.90
11965;DHT22;6042;41.326;19.826;2023-05-16T00:09:12;21.70;99.90
11965;DHT22;6042;41.326;19.826;2023-05-16T00:11:40;21.70;99.90
11965;DHT22;6042;41.326;19.826;2023-05-16T00:14:08;21.70;99.90
11965;DHT22;6042;41.326;19.826;2023-05-16T00:16:39;21.70;99.90
11965;DHT22;6042;41.326;19.826;2023-05-16T00:19:08;21.60;99.60
11965;DHT22;6042;41.326;19.826;2023-05-16T00:21:37;21.70;98.90
11965;DHT22;6042;41.326;19.826;2023-05-16T00:24:06;21.90;98.60
11965;DHT22;6042;41.326;19.826;2023-05-16T00:26:34;22.00;98.90
11965;DHT22;6042;41.326;19.826;2023-05-16T00:29:03;22.00;99.30
11965;DHT22;6042;41.326;19.826;2023-05-16T00:31:31;22.00;99.20
11965;DHT22;6042;41.326;19.826;2023-05-16T00:34:01;22.10;98.90
11965;DHT22;6042;41.326;19.826;2023-05-16T00:36:29;22.20;98.90
11965;DHT22;6042;41.326;19.826;2023-05-16T00:38:58;22.20;99.30
11965;DHT22;6042;41.326;19.826;2023-05-16T00:41:27;22.30;98.30
11965;DHT22;6042;41.326;19.826;2023-05-16T00:43:55;22.40;96.70
11965;DHT22;6042;41.326;19.826;2023-05-16T00:46:23;22.60;96.50
11965;DHT22;6042;41.326;19.826;2023-05-16T00:48:52;22.60;96.80
11965;DHT22;6042;41.326;19.826;2023-05-16T00:51:22;22.40;98.00
11965;DHT22;6042;41.326;19.826;2023-05-16T00:53:51;22.10;99.10
11965;DHT22;6042;41.326;19.826;2023-05-16T00:56:21;21.80;99.80
11965;DHT22;6042;41.326;19.826;2023-05-16T00:58:49;21.60;99.50
11965;DHT22;6042;41.326;19.826;2023-05-16T01:01:19;21.60;99.60
11965;DHT22;6042;41.326;19.826;2023-05-16T01:03:52;21.70;99.30
11965;DHT22;6042;41.326;19.826;2023-05-16T01:06:22;21.70;99.90
11965;DHT22;6042;41.326;19.826;2023-05-16T01:08:52;21.70;99.90
11965;DHT22;6042;41.326;19.826;2023-05-16T01:11:25;21.80;99.90
11965;DHT22;6042;41.326;19.826;2023-05-16T01:14:02;21.70;99.90
11965;DHT22;6042;41.326;19.826;2023-05-16T01:16:36;21.60;99.90
11965;DHT22;6042;41.326;19.826;2023-05-16T01:19:13;21.70;99.90
11965;DHT22;6042;41.326;19.826;2023-05-16T01:21:59;21.70;99.90
11965;DHT22;6042;41.326;19.826;2023-05-16T01:24:33;21.60;99.90
11965;DHT22;6042;41.326;19.826;2023-05-16T01:27:04;21.60;99.90
11965;DHT22;6042;41.326;19.826;2023-05-16T01:29:33;21.50;99.90
11965;DHT22;6042;41.326;19.826;2023-05-16T01:32:03;21.50;99.90
11965;DHT22;6042;41.326;19.826;2023-05-16T01:34:33;21.40;99.90
11965;DHT22;6042;41.326;19.826;2023-05-16T01:37:07;21.40;99.90
11965;DHT22;6042;41.326;19.826;2023-05-16T01:39:42;21.10;99.90
11965;DHT22;6042;41.326;19.826;2023-05-16T01:42:14;21.00;99.90
11965;DHT22;6042;41.326;19.826;2023-05-16T01:44:45;21.00;99.90
11965;DHT22;6042;41.326;19.826;2023-05-16T01:47:18;20.80;99.90
11965;DHT22;6042;41.326;19.826;2023-05-16T01:49:53;20.80;99.90
11965;DHT22;6042;41.326;19.826;2023-05-16T01:52:27;20.80;99.90
11965;DHT22;6042;41.326;19.826;2023-05-16T01:54:59;20.70;99.90
11965;DHT22;6042;41.326;19.826;2023-05-16T01:57:31;20.70;99.90
11965;DHT22;6042;41.326;19.826;2023-05-16T02:00:00;20.80;99.90
11965;DHT22;6042;41.326;19.826;2023-05-16T02:02:30;20.80;99.90
11965;DHT22;6042;41.326;19.826;2023-05-16T02:05:03;20.70;99.90
11965;DHT22;6042;41.326;19.826;2023-05-16T02:07:33;20.70;99.90
11965;DHT22;6042;41.326;19.826;2023-05-16T02:10:01;20.70;99.90
11965;DHT22;6042;41.326;19.826;2023-05-16T02:12:36;20.60;99.90
11965;DHT22;6042;41.326;19.826;2023-05-16T02:15:05;20.60;99.90
11965;DHT22;6042;41.326;19.826;2023-05-16T02:17:33;20.40;99.90
11965;DHT22;6042;41.326;19.826;2023-05-16T02:20:03;20.40;99.90
11965;DHT22;6042;41.326;19.826;2023-05-16T02:22:33;20.40;99.90
11965;DHT22;6042;41.326;19.826;2023-05-16T02:25:02;20.40;99.90
11965;DHT22;6042;41.326;19.826;2023-05-16T02:27:31;20.40;99.90
11965;DHT22;6042;41.326;19.826;2023-05-16T02:30:01;20.50;99.90
11965;DHT22;6042;41.326;19.826;2023-05-16T02:32:29;20.60;99.90
11965;DHT22;6042;41.326;19.826;2023-05-16T02:34:58;20.60;99.90
11965;DHT22;6042;41.326;19.826;2023-05-16T02:37:26;20.60;99.90
11965;DHT22;6042;41.326;19.826;2023-05-16T02:39:56;20.60;99.90
11965;DHT22;6042;41.326;19.826;2023-05-16T02:42:25;20.50;99.90
11965;DHT22;6042;41.326;19.826;2023-05-16T02:44:54;20.40;99.90
11965;DHT22;6042;41.326;19.826;2023-05-16T02:47:24;20.40;99.90
11965;DHT22;6042;41.326;19.826;2023-05-16T02:49:54;20.40;99.90
11965;DHT22;6042;41.326;19.826;2023-05-16T02:52:22;20.10;99.90
11965;DHT22;6042;41.326;19.826;2023-05-16T02:54:50;19.90;99.90
11965;DHT22;6042;41.326;19.826;2023-05-16T02:57:22;19.70;99.90
11965;DHT22;6042;41.326;19.826;2023-05-16T02:59:50;19.70;99.90
11965;DHT22;6042;41.326;19.826;2023-05-16T03:02:19;19.70;99.90
11965;DHT22;6042;41.326;19.826;2023-05-16T03:04:48;19.80;99.90
11965;DHT22;6042;41.326;19.826;2023-05-16T03:07:17;19.70;99.90
11965;DHT22;6042;41.326;19.826;2023-05-16T03:09:45;19.70;99.90
11965;DHT22;6042;41.326;19.826;2023-05-16T03:12:13;19.50;99.90
11965;DHT22;6042;41.326;19.826;2023-05-16T03:14:42;19.10;99.90
11965;DHT22;6042;41.326;19.826;2023-05-16T03:17:10;19.10;99.90
11965;DHT22;6042;41.326;19.826;2023-05-16T03:19:38;18.90;99.90
11965;DHT22;6042;41.326;19.826;2023-05-16T03:22:08;18.60;99.90
11965;DHT22;6042;41.326;19.826;2023-05-16T03:24:36;18.50;99.90
11965;DHT22;6042;41.326;19.826;2023-05-16T03:27:05;18.40;99.90
11965;DHT22;6042;41.326;19.826;2023-05-16T03:29:34;18.50;99.90
11965;DHT22;6042;41.326;19.826;2023-05-16T03:32:03;18.40;99.90
11965;DHT22;6042;41.326;19.826;2023-05-16T03:34:32;18.50;99.90
11965;DHT22;6042;41.326;19.826;2023-05-16T03:37:00;18.50;99.90
11965;DHT22;6042;41.326;19.826;2023-05-16T03:39:30;18.60;99.90
11965;DHT22;6042;41.326;19.826;2023-05-16T03:41:58;18.50;99.90
11965;DHT22;6042;41.326;19.826;2023-05-16T03:44:27;18.40;99.90
11965;DHT22;6042;41.326;19.826;2023-05-16T03:46:55;18.20;99.90
11965;DHT22;6042;41.326;19.826;2023-05-16T03:49:25;18.30;99.90
11965;DHT22;6042;41.326;19.826;2023-05-16T03:51:54;18.30;99.90
11965;DHT22;6042;41.326;19.826;2023-05-16T03:54:23;18.30;99.90
11965;DHT22;6042;41.326;19.826;2023-05-16T03:56:53;18.20;99.90
11965;DHT22;6042;41.326;19.826;2023-05-16T03:59:21;18.10;99.90
11965;DHT22;6042;41.326;19.826;2023-05-16T04:01:50;18.10;99.90
11965;DHT22;6042;41.326;19.826;2023-05-16T04:04:18;18.20;99.90
11965;DHT22;6042;41.326;19.826;2023-05-16T04:06:46;18.20;99.90
11965;DHT22;6042;41.326;19.826;2023-05-16T04:09:15;18.10;99.90
11965;DHT22;6042;41.326;19.826;2023-05-16T04:11:43;18.00;99.90
11965;DHT22;6042;41.326;19.826;2023-05-16T04:14:13;18.00;99.90
11965;DHT22;6042;41.326;19.826;2023-05-16T04:16:42;18.00;99.90
11965;DHT22;6042;41.326;19.826;2023-05-16T04:19:10;18.00;99.90
11965;DHT22;6042;41.326;19.826;2023-05-16T04:21:39;18.10;99.90
11965;DHT22;6042;41.326;19.826;2023-05-16T04:24:07;18.20;99.90
11965;DHT22;6042;41.326;19.826;2023-05-16T04:26:35;18.30;99.90
11965;DHT22;6042;41.326;19.826;2023-05-16T04:29:04;18.30;99.90
11965;DHT22;6042;41.326;19.826;2023-05-16T04:31:34;18.30;99.90
11965;DHT22;6042;41.326;19.826;2023-05-16T04:34:03;18.30;99.90
11965;DHT22;6042;41.326;19.826;2023-05-16T04:36:31;18.30;99.90
11965;DHT22;6042;41.326;19.826;2023-05-16T04:39:01;18.20;99.90
11965;DHT22;6042;41.326;19.826;2023-05-16T04:41:30;18.10;99.90
11965;DHT22;6042;41.326;19.826;2023-05-16T04:43:59;18.00;99.90
11965;DHT22;6042;41.326;19.826;2023-05-16T04:46:29;18.00;99.90
11965;DHT22;6042;41.326;19.826;2023-05-16T04:48:59;18.10;99.90
11965;DHT22;6042;41.326;19.826;2023-05-16T04:51:27;18.10;99.90
11965;DHT22;6042;41.326;19.826;2023-05-16T04:53:57;18.20;99.90
11965;DHT22;6042;41.326;19.826;2023-05-16T04:56:26;18.10;99.90
11965;DHT22;6042;41.326;19.826;2023-05-16T04:58:54;18.10;99.90
11965;DHT22;6042;41.326;19.826;2023-05-16T05:01:22;17.80;99.90
11965;DHT22;6042;41.326;19.826;2023-05-16T05:03:51;17.60;99.90
11965;DHT22;6042;41.326;19.826;2023-05-16T05:06:20;17.60;99.90
11965;DHT22;6042;41.326;19.826;2023-05-16T05:08:49;17.50;99.90
11965;DHT22;6042;41.326;19.826;2023-05-16T05:11:17;17.40;99.90
11965;DHT22;6042;41.326;19.826;2023-05-16T05:13:46;17.20;99.90
11965;DHT22;6042;41.326;19.826;2023-05-16T05:16:17;17.10;99.90
11965;DHT22;6042;41.326;19.826;2023-05-16T05:18:46;17.00;99.90
11965;DHT22;6042;41.326;19.826;2023-05-16T05:21:15;17.00;99.90
11965;DHT22;6042;41.326;19.826;2023-05-16T05:23:45;17.00;99.90
11965;DHT22;6042;41.326;19.826;2023-05-16T05:26:16;17.00;99.90
11965;DHT22;6042;41.326;19.826;2023-05-16T05:28:44;17.00;99.90
11965;DHT22;6042;41.326;19.826;2023-05-16T05:31:27;17.10;99.90
11965;DHT22;6042;41.326;19.826;2023-05-16T05:33:56;17.20;99.90
11965;DHT22;6042;41.326;19.826;2023-05-16T05:36:24;17.30;99.90
11965;DHT22;6042;41.326;19.826;2023-05-16T05:38:54;17.40;99.90
11965;DHT22;6042;41.326;19.826;2023-05-16T05:41:22;17.40;99.90
11965;DHT22;6042;41.326;19.826;2023-05-16T05:43:51;17.30;99.90
11965;DHT22;6042;41.326;19.826;2023-05-16T05:46:19;17.20;99.90
11965;DHT22;6042;41.326;19.826;2023-05-16T05:48:47;17.20;99.90
11965;DHT22;6042;41.326;19.826;2023-05-16T05:51:16;17.30;99.90
11965;DHT22;6042;41.326;19.826;2023-05-16T05:53:45;17.30;99.90
11965;DHT22;6042;41.326;19.826;2023-05-16T05:56:15;17.40;99.90
11965;DHT22;6042;41.326;19.826;2023-05-16T05:58:43;17.50;99.90
11965;DHT22;6042;41.326;19.826;2023-05-16T06:01:12;17.50;99.90
11965;DHT22;6042;41.326;19.826;2023-05-16T06:03:40;17.40;99.90
11965;DHT22;6042;41.326;19.826;2023-05-16T06:06:08;17.40;99.90
11965;DHT22;6042;41.326;19.826;2023-05-16T06:08:37;17.50;99.90
11965;DHT22;6042;41.326;19.826;2023-05-16T06:11:05;17.60;99.90
11965;DHT22;6042;41.326;19.826;2023-05-16T06:13:35;17.60;99.90
11965;DHT22;6042;41.326;19.826;2023-05-16T06:16:04;17.70;99.90
11965;DHT22;6042;41.326;19.826;2023-05-16T06:18:36;17.80;99.90
11965;DHT22;6042;41.326;19.826;2023-05-16T06:21:04;17.90;99.90
11965;DHT22;6042;41.326;19.826;2023-05-16T06:23:33;18.00;99.90
11965;DHT22;6042;41.326;19.826;2023-05-16T06:26:02;18.10;99.90
11965;DHT22;6042;41.326;19.826;2023-05-16T06:28:30;18.10;99.90
11965;DHT22;6042;41.326;19.826;2023-05-16T06:31:00;18.10;99.90
11965;DHT22;6042;41.326;19.826;2023-05-16T06:33:29;18.00;99.90
11965;DHT22;6042;41.326;19.826;2023-05-16T06:35:57;17.90;99.90
11965;DHT22;6042;41.326;19.826;2023-05-16T06:38:25;17.80;99.90
11965;DHT22;6042;41.326;19.826;2023-05-16T06:40:54;17.60;99.90
11965;DHT22;6042;41.326;19.826;2023-05-16T06:43:22;17.60;99.90
11965;DHT22;6042;41.326;19.826;2023-05-16T06:45:51;17.60;99.90
11965;DHT22;6042;41.326;19.826;2023-05-16T06:48:20;17.70;99.90
11965;DHT22;6042;41.326;19.826;2023-05-16T06:50:49;17.80;99.90
11965;DHT22;6042;41.326;19.826;2023-05-16T06:53:18;18.00;99.90
11965;DHT22;6042;41.326;19.826;2023-05-16T06:55:46;18.10;99.90
11965;DHT22;6042;41.326;19.826;2023-05-16T06:58:15;18.20;99.90
11965;DHT22;6042;41.326;19.826;2023-05-16T07:00:43;18.20;99.90
11965;DHT22;6042;41.326;19.826;2023-05-16T07:03:38;18.20;99.90
11965;DHT22;6042;41.326;19.826;2023-05-16T07:06:07;18.10;99.90
11965;DHT22;6042;41.326;19.826;2023-05-16T07:08:37;18.00;99.90
11965;DHT22;6042;41.326;19.826;2023-05-16T07:11:06;18.10;99.90
11965;DHT22;6042;41.326;19.826;2023-05-16T07:13:34;18.00;99.90
11965;DHT22;6042;41.326;19.826;2023-05-16T07:16:03;18.10;99.90
11965;DHT22;6042;41.326;19.826;2023-05-16T07:18:33;18.20;99.90
11965;DHT22;6042;41.326;19.826;2023-05-16T07:21:03;18.40;99.90
11965;DHT22;6042;41.326;19.826;2023-05-16T07:23:32;18.50;99.90
11965;DHT22;6042;41.326;19.826;2023-05-16T07:26:00;18.70;99.90
11965;DHT22;6042;41.326;19.826;2023-05-16T07:28:29;18.80;99.90
11965;DHT22;6042;41.326;19.826;2023-05-16T07:30:57;18.80;99.90
11965;DHT22;6042;41.326;19.826;2023-05-16T07:33:29;18.90;99.90
11965;DHT22;6042;41.326;19.826;2023-05-16T07:35:57;19.00;99.90
11965;DHT22;6042;41.326;19.826;2023-05-16T07:38:43;19.10;99.90
11965;DHT22;6042;41.326;19.826;2023-05-16T07:41:11;19.30;99.90
11965;DHT22;6042;41.326;19.826;2023-05-16T07:43:40;19.40;99.90
11965;DHT22;6042;41.326;19.826;2023-05-16T07:46:09;19.60;99.90
11965;DHT22;6042;41.326;19.826;2023-05-16T07:48:38;19.70;99.90
11965;DHT22;6042;41.326;19.826;2023-05-16T07:51:06;19.70;99.90
11965;DHT22;6042;41.326;19.826;2023-05-16T07:53:35;19.60;99.90
11965;DHT22;6042;41.326;19.826;2023-05-16T07:56:05;19.60;99.90
11965;DHT22;6042;41.326;19.826;2023-05-16T07:58:34;19.80;99.90
11965;DHT22;6042;41.326;19.826;2023-05-16T08:01:03;19.80;99.90
11965;DHT22;6042;41.326;19.826;2023-05-16T08:03:31;19.70;99.90
11965;DHT22;6042;41.326;19.826;2023-05-16T08:06:00;19.70;99.90
11965;DHT22;6042;41.326;19.826;2023-05-16T08:08:28;19.80;99.90
11965;DHT22;6042;41.326;19.826;2023-05-16T08:10:57;20.00;99.90
11965;DHT22;6042;41.326;19.826;2023-05-16T08:13:27;20.10;99.90
11965;DHT22;6042;41.326;19.826;2023-05-16T08:15:55;20.10;99.90
11965;DHT22;6042;41.326;19.826;2023-05-16T08:18:24;20.00;99.90
11965;DHT22;6042;41.326;19.826;2023-05-16T08:20:52;20.20;99.90
11965;DHT22;6042;41.326;19.826;2023-05-16T08:23:20;20.20;99.90
11965;DHT22;6042;41.326;19.826;2023-05-16T08:25:49;20.30;99.90
11965;DHT22;6042;41.326;19.826;2023-05-16T08:28:17;20.30;99.90
11965;DHT22;6042;41.326;19.826;2023-05-16T08:30:47;20.30;99.90
11965;DHT22;6042;41.326;19.826;2023-05-16T08:33:15;20.30;99.90
11965;DHT22;6042;41.326;19.826;2023-05-16T08:35:44;20.30;99.90
11965;DHT22;6042;41.326;19.826;2023-05-16T08:38:15;20.30;99.90
11965;DHT22;6042;41.326;19.826;2023-05-16T08:40:44;20.50;99.90
11965;DHT22;6042;41.326;19.826;2023-05-16T08:43:12;20.60;99.90
11965;DHT22;6042;41.326;19.826;2023-05-16T08:45:41;20.70;99.90
11965;DHT22;6042;41.326;19.826;2023-05-16T08:48:11;20.80;99.90
11965;DHT22;6042;41.326;19.826;2023-05-16T08:50:41;21.10;99.90
11965;DHT22;6042;41.326;19.826;2023-05-16T08:53:11;21.50;99.90
11965;DHT22;6042;41.326;19.826;2023-05-16T08:55:42;21.70;99.90
11965;DHT22;6042;41.326;19.826;2023-05-16T08:58:11;22.00;99.90
11965;DHT22;6042;41.326;19.826;2023-05-16T09:00:40;22.40;99.90
11965;DHT22;6042;41.326;19.826;2023-05-16T09:03:11;22.50;99.90
11965;DHT22;6042;41.326;19.826;2023-05-16T09:05:39;22.80;99.90
11965;DHT22;6042;41.326;19.826;2023-05-16T09:08:08;23.00;99.90
11965;DHT22;6042;41.326;19.826;2023-05-16T09:10:38;22.90;99.90
11965;DHT22;6042;41.326;19.826;2023-05-16T09:13:06;23.10;99.90
11965;DHT22;6042;41.326;19.826;2023-05-16T09:15:35;23.30;99.90
11965;DHT22;6042;41.326;19.826;2023-05-16T09:18:03;23.50;99.90
11965;DHT22;6042;41.326;19.826;2023-05-16T09:20:33;23.60;99.90
11965;DHT22;6042;41.326;19.826;2023-05-16T09:23:01;23.60;99.90
11965;DHT22;6042;41.326;19.826;2023-05-16T09:25:30;23.50;99.90
11965;DHT22;6042;41.326;19.826;2023-05-16T09:28:00;23.50;99.90
11965;DHT22;6042;41.326;19.826;2023-05-16T09:30:31;23.40;99.90
11965;DHT22;6042;41.326;19.826;2023-05-16T09:33:00;23.60;99.90
11965;DHT22;6042;41.326;19.826;2023-05-16T09:35:30;23.40;99.90
11965;DHT22;6042;41.326;19.826;2023-05-16T09:38:03;23.40;99.90
11965;DHT22;6042;41.326;19.826;2023-05-16T09:40:31;23.30;99.70
11965;DHT22;6042;41.326;19.826;2023-05-16T09:43:04;23.40;99.30
11965;DHT22;6042;41.326;19.826;2023-05-16T09:45:33;23.70;99.00
11965;DHT22;6042;41.326;19.826;2023-05-16T09:48:04;24.10;98.60
11965;DHT22;6042;41.326;19.826;2023-05-16T09:50:33;24.20;98.30
11965;DHT22;6042;41.326;19.826;2023-05-16T09:53:04;23.90;97.90
11965;DHT22;6042;41.326;19.826;2023-05-16T09:55:32;24.00;97.30
11965;DHT22;6042;41.326;19.826;2023-05-16T09:58:01;24.10;97.80
11965;DHT22;6042;41.326;19.826;2023-05-16T10:00:30;24.10;97.20
11965;DHT22;6042;41.326;19.826;2023-05-16T10:03:00;24.20;96.80
11965;DHT22;6042;41.326;19.826;2023-05-16T10:05:32;24.20;96.40
11965;DHT22;6042;41.326;19.826;2023-05-16T10:08:03;24.00;96.70
11965;DHT22;6042;41.326;19.826;2023-05-16T10:10:34;23.70;96.50
11965;DHT22;6042;41.326;19.826;2023-05-16T10:13:05;23.50;97.20
11965;DHT22;6042;41.326;19.826;2023-05-16T10:15:36;23.40;97.50
11965;DHT22;6042;41.326;19.826;2023-05-16T10:18:06;23.40;97.30
11965;DHT22;6042;41.326;19.826;2023-05-16T10:20:40;23.30;97.50
11965;DHT22;6042;41.326;19.826;2023-05-16T10:23:16;23.20;97.90
11965;DHT22;6042;41.326;19.826;2023-05-16T10:25:47;23.20;97.80
11965;DHT22;6042;41.326;19.826;2023-05-16T10:28:15;23.00;99.60
11965;DHT22;6042;41.326;19.826;2023-05-16T10:30:45;22.40;99.90
11965;DHT22;6042;41.326;19.826;2023-05-16T10:33:15;21.70;99.90
11965;DHT22;6042;41.326;19.826;2023-05-16T10:35:44;21.30;99.90
11965;DHT22;6042;41.326;19.826;2023-05-16T10:38:17;20.70;99.90
11965;DHT22;6042;41.326;19.826;2023-05-16T10:40:46;20.20;99.90
11965;DHT22;6042;41.326;19.826;2023-05-16T10:43:23;20.00;99.90
11965;DHT22;6042;41.326;19.826;2023-05-16T10:45:54;20.00;99.90
11965;DHT22;6042;41.326;19.826;2023-05-16T10:48:30;20.00;99.90
11965;DHT22;6042;41.326;19.826;2023-05-16T10:51:00;20.10;99.90
11965;DHT22;6042;41.326;19.826;2023-05-16T10:53:32;20.00;99.90
11965;DHT22;6042;41.326;19.826;2023-05-16T10:56:09;19.90;99.90
11965;DHT22;6042;41.326;19.826;2023-05-16T10:58:46;19.60;99.90
11965;DHT22;6042;41.326;19.826;2023-05-16T11:01:22;19.80;99.90
11965;DHT22;6042;41.326;19.826;2023-05-16T11:04:14;20.20;99.90
11965;DHT22;6042;41.326;19.826;2023-05-16T11:06:45;20.80;99.90
11965;DHT22;6042;41.326;19.826;2023-05-16T11:09:20;21.20;99.90
11965;DHT22;6042;41.326;19.826;2023-05-16T11:12:00;21.40;99.90
11965;DHT22;6042;41.326;19.826;2023-05-16T11:14:36;21.60;99.90
11965;DHT22;6042;41.326;19.826;2023-05-16T11:17:09;22.00;99.90
11965;DHT22;6042;41.326;19.826;2023-05-16T11:19:41;22.30;99.90
11965;DHT22;6042;41.326;19.826;2023-05-16T11:22:23;22.20;99.90
11965;DHT22;6042;41.326;19.826;2023-05-16T11:24:55;22.40;99.90
11965;DHT22;6042;41.326;19.826;2023-05-16T11:27:26;22.10;99.90
11965;DHT22;6042;41.326;19.826;2023-05-16T11:29:59;21.90;99.90
11965;DHT22;6042;41.326;19.826;2023-05-16T11:32:32;22.00;99.90
11965;DHT22;6042;41.326;19.826;2023-05-16T11:35:01;22.00;99.90
11965;DHT22;6042;41.326;19.826;2023-05-16T11:37:30;22.10;99.90
11965;DHT22;6042;41.326;19.826;2023-05-16T11:40:00;21.90;99.90
11965;DHT22;6042;41.326;19.826;2023-05-16T11:42:30;21.80;99.90
11965;DHT22;6042;41.326;19.826;2023-05-16T11:45:04;22.00;99.90
11965;DHT22;6042;41.326;19.826;2023-05-16T11:47:34;22.00;99.90
11965;DHT22;6042;41.326;19.826;2023-05-16T11:50:05;22.10;99.90
11965;DHT22;6042;41.326;19.826;2023-05-16T11:52:33;21.70;99.90
11965;DHT22;6042;41.326;19.826;2023-05-16T11:55:05;21.80;99.90
11965;DHT22;6042;41.326;19.826;2023-05-16T11:57:34;21.50;99.90
11965;DHT22;6042;41.326;19.826;2023-05-16T12:00:03;21.80;99.90
11965;DHT22;6042;41.326;19.826;2023-05-16T12:02:34;21.50;99.90
11965;DHT22;6042;41.326;19.826;2023-05-16T12:05:07;21.40;99.90
11965;DHT22;6042;41.326;19.826;2023-05-16T12:07:36;21.50;99.90
11965;DHT22;6042;41.326;19.826;2023-05-16T12:10:07;21.80;99.90
11965;DHT22;6042;41.326;19.826;2023-05-16T12:12:38;22.00;99.90
11965;DHT22;6042;41.326;19.826;2023-05-16T12:15:08;22.30;99.90
11965;DHT22;6042;41.326;19.826;2023-05-16T12:17:39;22.50;99.90
11965;DHT22;6042;41.326;19.826;2023-05-16T12:20:09;22.50;99.90
11965;DHT22;6042;41.326;19.826;2023-05-16T12:22:42;22.60;99.90
11965;DHT22;6042;41.326;19.826;2023-05-16T12:25:33;22.80;99.90
11965;DHT22;6042;41.326;19.826;2023-05-16T12:28:04;23.50;99.90
11965;DHT22;6042;41.326;19.826;2023-05-16T12:30:33;23.80;99.90
11965;DHT22;6042;41.326;19.826;2023-05-16T12:33:07;24.10;99.90
11965;DHT22;6042;41.326;19.826;2023-05-16T12:35:37;24.80;99.90
11965;DHT22;6042;41.326;19.826;2023-05-16T12:38:07;24.80;99.90
11965;DHT22;6042;41.326;19.826;2023-05-16T12:40:38;24.90;99.90
11965;DHT22;6042;41.326;19.826;2023-05-16T12:43:12;25.10;99.50
11965;DHT22;6042;41.326;19.826;2023-05-16T12:45:41;25.20;99.40
11965;DHT22;6042;41.326;19.826;2023-05-16T12:48:13;25.70;98.90
11965;DHT22;6042;41.326;19.826;2023-05-16T12:50:42;25.90;98.30
11965;DHT22;6042;41.326;19.826;2023-05-16T12:53:14;25.70;97.70
11965;DHT22;6042;41.326;19.826;2023-05-16T12:55:44;25.70;97.90
11965;DHT22;6042;41.326;19.826;2023-05-16T12:58:13;26.10;97.30
11965;DHT22;6042;41.326;19.826;2023-05-16T13:00:42;26.10;96.50
11965;DHT22;6042;41.326;19.826;2023-05-16T13:03:10;25.80;97.00
11965;DHT22;6042;41.326;19.826;2023-05-16T13:05:39;25.80;96.90
11965;DHT22;6042;41.326;19.826;2023-05-16T13:08:08;26.30;96.10
11965;DHT22;6042;41.326;19.826;2023-05-16T13:10:38;26.70;95.70
11965;DHT22;6042;41.326;19.826;2023-05-16T13:13:07;27.90;94.20
11965;DHT22;6042;41.326;19.826;2023-05-16T13:15:38;28.50;93.30
11965;DHT22;6042;41.326;19.826;2023-05-16T13:18:06;29.00;92.60
11965;DHT22;6042;41.326;19.826;2023-05-16T13:20:36;30.10;91.40
11965;DHT22;6042;41.326;19.826;2023-05-16T13:23:04;30.00;89.90
11965;DHT22;6042;41.326;19.826;2023-05-16T13:25:33;29.40;90.20
11965;DHT22;6042;41.326;19.826;2023-05-16T13:28:01;29.50;90.20
11965;DHT22;6042;41.326;19.826;2023-05-16T13:30:32;29.70;89.50
11965;DHT22;6042;41.326;19.826;2023-05-16T13:33:00;28.30;90.70
11965;DHT22;6042;41.326;19.826;2023-05-16T13:35:29;27.20;92.00
11965;DHT22;6042;41.326;19.826;2023-05-16T13:37:57;26.30;93.50
11965;DHT22;6042;41.326;19.826;2023-05-16T13:40:26;26.10;93.90
11965;DHT22;6042;41.326;19.826;2023-05-16T13:42:55;26.40;93.90
11965;DHT22;6042;41.326;19.826;2023-05-16T13:45:24;26.20;94.30
11965;DHT22;6042;41.326;19.826;2023-05-16T13:47:55;26.70;94.00
11965;DHT22;6042;41.326;19.826;2023-05-16T13:50:23;27.10;92.90
11965;DHT22;6042;41.326;19.826;2023-05-16T13:52:59;26.60;94.10
11965;DHT22;6042;41.326;19.826;2023-05-16T13:55:28;26.80;94.30
11965;DHT22;6042;41.326;19.826;2023-05-16T13:57:56;27.30;93.20
11965;DHT22;6042;41.326;19.826;2023-05-16T14:00:25;27.30;92.50
11965;DHT22;6042;41.326;19.826;2023-05-16T14:03:12;26.20;94.20
11965;DHT22;6042;41.326;19.826;2023-05-16T14:05:40;26.30;94.10
11965;DHT22;6042;41.326;19.826;2023-05-16T14:08:09;25.50;95.20
11965;DHT22;6042;41.326;19.826;2023-05-16T14:10:37;25.30;95.50
11965;DHT22;6042;41.326;19.826;2023-05-16T14:13:05;25.40;95.80
11965;DHT22;6042;41.326;19.826;2023-05-16T14:15:34;24.90;96.00
11965;DHT22;6042;41.326;19.826;2023-05-16T14:18:03;24.50;97.10
11965;DHT22;6042;41.326;19.826;2023-05-16T14:20:33;24.10;97.90
11965;DHT22;6042;41.326;19.826;2023-05-16T14:23:01;24.10;98.10
11965;DHT22;6042;41.326;19.826;2023-05-16T14:25:30;24.10;98.20
11965;DHT22;6042;41.326;19.826;2023-05-16T14:27:58;24.00;98.40
11965;DHT22;6042;41.326;19.826;2023-05-16T14:30:27;24.70;97.20
11965;DHT22;6042;41.326;19.826;2023-05-16T14:32:56;26.10;96.20
11965;DHT22;6042;41.326;19.826;2023-05-16T14:35:25;28.20;93.80
11965;DHT22;6042;41.326;19.826;2023-05-16T14:37:55;29.70;91.40
11965;DHT22;6042;41.326;19.826;2023-05-16T14:40:23;29.80;90.80
11965;DHT22;6042;41.326;19.826;2023-05-16T14:42:54;30.20;90.20
11965;DHT22;6042;41.326;19.826;2023-05-16T14:45:22;30.10;90.70
11965;DHT22;6042;41.326;19.826;2023-05-16T14:47:51;29.60;90.70
11965;DHT22;6042;41.326;19.826;2023-05-16T14:50:20;30.30;90.20
11965;DHT22;6042;41.326;19.826;2023-05-16T14:52:48;30.90;90.00
11965;DHT22;6042;41.326;19.826;2023-05-16T14:55:18;29.70;91.10
11965;DHT22;6042;41.326;19.826;2023-05-16T14:57:47;29.00;92.30
11965;DHT22;6042;41.326;19.826;2023-05-16T15:00:25;28.60;92.60
11965;DHT22;6042;41.326;19.826;2023-05-16T15:02:54;26.80;94.90
11965;DHT22;6042;41.326;19.826;2023-05-16T15:05:22;26.40;96.10
11965;DHT22;6042;41.326;19.826;2023-05-16T15:07:51;26.60;95.60
11965;DHT22;6042;41.326;19.826;2023-05-16T15:10:21;26.00;96.40
11965;DHT22;6042;41.326;19.826;2023-05-16T15:12:50;25.50;96.50
11965;DHT22;6042;41.326;19.826;2023-05-16T15:15:18;24.80;97.60
11965;DHT22;6042;41.326;19.826;2023-05-16T15:17:46;24.30;98.60
11965;DHT22;6042;41.326;19.826;2023-05-16T15:20:15;23.90;99.40
11965;DHT22;6042;41.326;19.826;2023-05-16T15:22:45;23.50;99.90
11965;DHT22;6042;41.326;19.826;2023-05-16T15:25:14;23.20;99.90
11965;DHT22;6042;41.326;19.826;2023-05-16T15:27:44;23.20;99.90
11965;DHT22;6042;41.326;19.826;2023-05-16T15:30:12;23.40;99.40
11965;DHT22;6042;41.326;19.826;2023-05-16T15:32:41;24.50;98.10
11965;DHT22;6042;41.326;19.826;2023-05-16T15:35:11;26.60;94.80
11965;DHT22;6042;41.326;19.826;2023-05-16T15:37:39;27.80;93.00
11965;DHT22;6042;41.326;19.826;2023-05-16T15:40:09;28.70;91.00
11965;DHT22;6042;41.326;19.826;2023-05-16T15:42:38;29.40;90.70
11965;DHT22;6042;41.326;19.826;2023-05-16T15:45:11;29.30;91.60
11965;DHT22;6042;41.326;19.826;2023-05-16T15:47:40;28.70;92.00